sensor_id;sensor_type;location;lat;lon;timestamp;P1;durP1;ratioP1;P2;durP2;ratioP2
3571;SDS011;7958;53.024;12.970;2023-12-22T00:00:14;12.30;;;2.70;;
3571;SDS011;7958;53.024;12.970;2023-12-22T00:02:41;9.97;;;2.47;;
3571;SDS011;7958;53.024;12.970;2023-12-22T00:05:08;12.17;;;3.20;;
3571;SDS011;7958;53.024;12.970;2023-12-22T00:07:34;13.37;;;3.23;;
3571;SDS011;7958;53.024;12.970;2023-12-22T00:10:02;10.90;;;2.10;;
3571;SDS011;7958;53.024;12.970;2023-12-22T00:12:29;8.80;;;2.40;;
3571;SDS011;7958;53.024;12.970;2023-12-22T00:14:57;8.13;;;2.10;;
3571;SDS011;7958;53.024;12.970;2023-12-22T00:17:27;7.37;;;2.70;;
3571;SDS011;7958;53.024;12.970;2023-12-22T00:19:54;9.47;;;2.37;;
3571;SDS011;7958;53.024;12.970;2023-12-22T00:22:23;9.83;;;2.30;;
3571;SDS011;7958;53.024;12.970;2023-12-22T00:24:50;12.67;;;2.73;;
3571;SDS011;7958;53.024;12.970;2023-12-22T00:27:18;8.90;;;2.20;;
3571;SDS011;7958;53.024;12.970;2023-12-22T00:29:48;9.57;;;2.13;;
3571;SDS011;7958;53.024;12.970;2023-12-22T00:32:14;6.67;;;2.07;;
3571;SDS011;7958;53.024;12.970;2023-12-22T00:34:40;6.83;;;1.80;;
3571;SDS011;7958;53.024;12.970;2023-12-22T00:37:07;9.20;;;2.23;;
3571;SDS011;7958;53.024;12.970;2023-12-22T00:39:38;4.63;;;1.50;;
3571;SDS011;7958;53.024;12.970;2023-12-22T00:42:05;7.40;;;1.80;;
3571;SDS011;7958;53.024;12.970;2023-12-22T00:44:32;4.93;;;1.73;;
3571;SDS011;7958;53.024;12.970;2023-12-22T00:46:59;16.00;;;2.33;;
3571;SDS011;7958;53.024;12.970;2023-12-22T00:49:28;4.13;;;1.60;;
3571;SDS011;7958;53.024;12.970;2023-12-22T00:51:57;10.83;;;2.43;;
3571;SDS011;7958;53.024;12.970;2023-12-22T00:54:24;5.97;;;1.90;;
3571;SDS011;7958;53.024;12.970;2023-12-22T00:56:51;4.63;;;1.70;;
3571;SDS011;7958;53.024;12.970;2023-12-22T00:59:20;8.60;;;1.90;;
3571;SDS011;7958;53.024;12.970;2023-12-22T01:01:48;10.40;;;2.17;;
3571;SDS011;7958;53.024;12.970;2023-12-22T01:04:14;12.87;;;1.90;;
3571;SDS011;7958;53.024;12.970;2023-12-22T01:06:40;5.93;;;1.83;;
3571;SDS011;7958;53.024;12.970;2023-12-22T01:09:07;10.57;;;1.70;;
3571;SDS011;7958;53.024;12.970;2023-12-22T01:11:33;7.07;;;1.80;;
3571;SDS011;7958;53.024;12.970;2023-12-22T01:14:00;17.13;;;2.23;;
3571;SDS011;7958;53.024;12.970;2023-12-22T01:16:26;6.97;;;2.17;;
3571;SDS011;7958;53.024;12.970;2023-12-22T01:18:55;9.80;;;1.80;;
3571;SDS011;7958;53.024;12.970;2023-12-22T01:21:20;6.30;;;2.37;;
3571;SDS011;7958;53.024;12.970;2023-12-22T01:23:47;8.67;;;1.40;;
3571;SDS011;7958;53.024;12.970;2023-12-22T01:26:13;10.73;;;2.20;;
3571;SDS011;7958;53.024;12.970;2023-12-22T01:28:39;8.60;;;2.00;;
3571;SDS011;7958;53.024;12.970;2023-12-22T01:31:06;3.50;;;1.50;;
3571;SDS011;7958;53.024;12.970;2023-12-22T01:33:32;8.63;;;2.20;;
3571;SDS011;7958;53.024;12.970;2023-12-22T01:36:00;8.27;;;2.37;;
3571;SDS011;7958;53.024;12.970;2023-12-22T01:38:27;5.43;;;2.20;;
3571;SDS011;7958;53.024;12.970;2023-12-22T01:40:55;5.27;;;2.13;;
3571;SDS011;7958;53.024;12.970;2023-12-22T01:43:22;5.80;;;1.80;;
3571;SDS011;7958;53.024;12.970;2023-12-22T01:45:49;9.53;;;2.20;;
3571;SDS011;7958;53.024;12.970;2023-12-22T01:48:15;5.23;;;1.93;;
3571;SDS011;7958;53.024;12.970;2023-12-22T01:50:42;9.53;;;2.40;;
3571;SDS011;7958;53.024;12.970;2023-12-22T01:53:10;4.03;;;1.93;;
3571;SDS011;7958;53.024;12.970;2023-12-22T01:55:37;8.07;;;2.33;;
3571;SDS011;7958;53.024;12.970;2023-12-22T01:58:04;9.47;;;1.90;;
3571;SDS011;7958;53.024;12.970;2023-12-22T02:00:30;7.20;;;2.20;;
3571;SDS011;7958;53.024;12.970;2023-12-22T02:02:57;7.00;;;2.07;;
3571;SDS011;7958;53.024;12.970;2023-12-22T02:05:23;6.73;;;2.00;;
3571;SDS011;7958;53.024;12.970;2023-12-22T02:07:49;4.60;;;1.87;;
3571;SDS011;7958;53.024;12.970;2023-12-22T02:10:19;10.90;;;2.50;;
3571;SDS011;7958;53.024;12.970;2023-12-22T02:12:48;8.90;;;2.40;;
3571;SDS011;7958;53.024;12.970;2023-12-22T02:15:15;8.67;;;2.10;;
3571;SDS011;7958;53.024;12.970;2023-12-22T02:17:43;13.50;;;2.13;;
3571;SDS011;7958;53.024;12.970;2023-12-22T02:20:12;11.73;;;2.80;;
3571;SDS011;7958;53.024;12.970;2023-12-22T02:22:40;5.70;;;1.90;;
3571;SDS011;7958;53.024;12.970;2023-12-22T02:25:08;7.07;;;2.10;;
3571;SDS011;7958;53.024;12.970;2023-12-22T02:27:37;13.60;;;2.37;;
3571;SDS011;7958;53.024;12.970;2023-12-22T02:30:06;10.50;;;2.43;;
3571;SDS011;7958;53.024;12.970;2023-12-22T02:32:36;4.97;;;2.13;;
3571;SDS011;7958;53.024;12.970;2023-12-22T02:35:05;13.37;;;2.63;;
3571;SDS011;7958;53.024;12.970;2023-12-22T02:37:35;10.13;;;2.30;;
3571;SDS011;7958;53.024;12.970;2023-12-22T02:40:03;7.50;;;1.80;;
3571;SDS011;7958;53.024;12.970;2023-12-22T02:42:34;7.57;;;2.57;;
3571;SDS011;7958;53.024;12.970;2023-12-22T02:45:03;18.17;;;3.17;;
3571;SDS011;7958;53.024;12.970;2023-12-22T02:47:30;23.77;;;3.90;;
3571;SDS011;7958;53.024;12.970;2023-12-22T02:49:57;7.60;;;2.30;;
3571;SDS011;7958;53.024;12.970;2023-12-22T02:52:24;14.70;;;2.87;;
3571;SDS011;7958;53.024;12.970;2023-12-22T02:54:50;9.53;;;3.00;;
3571;SDS011;7958;53.024;12.970;2023-12-22T02:57:18;15.70;;;2.87;;
3571;SDS011;7958;53.024;12.970;2023-12-22T02:59:45;10.60;;;3.23;;
3571;SDS011;7958;53.024;12.970;2023-12-22T03:02:11;13.70;;;3.00;;
3571;SDS011;7958;53.024;12.970;2023-12-22T03:04:37;12.83;;;3.20;;
3571;SDS011;7958;53.024;12.970;2023-12-22T03:07:05;11.43;;;2.73;;
3571;SDS011;7958;53.024;12.970;2023-12-22T03:09:31;9.67;;;2.40;;
3571;SDS011;7958;53.024;12.970;2023-12-22T03:11:59;10.30;;;2.60;;
3571;SDS011;7958;53.024;12.970;2023-12-22T03:14:28;11.57;;;2.10;;
3571;SDS011;7958;53.024;12.970;2023-12-22T03:16:55;10.07;;;2.53;;
3571;SDS011;7958;53.024;12.970;2023-12-22T03:19:21;6.20;;;1.90;;
3571;SDS011;7958;53.024;12.970;2023-12-22T03:21:49;6.67;;;2.33;;
3571;SDS011;7958;53.024;12.970;2023-12-22T03:24:15;11.33;;;1.87;;
3571;SDS011;7958;53.024;12.970;2023-12-22T03:26:43;10.00;;;3.17;;
3571;SDS011;7958;53.024;12.970;2023-12-22T03:29:13;8.93;;;2.50;;
3571;SDS011;7958;53.024;12.970;2023-12-22T03:31:41;6.53;;;2.20;;
3571;SDS011;7958;53.024;12.970;2023-12-22T03:34:07;6.80;;;1.97;;
3571;SDS011;7958;53.024;12.970;2023-12-22T03:36:33;13.07;;;2.83;;
3571;SDS011;7958;53.024;12.970;2023-12-22T03:39:00;11.23;;;2.27;;
3571;SDS011;7958;53.024;12.970;2023-12-22T03:41:27;7.53;;;2.23;;
3571;SDS011;7958;53.024;12.970;2023-12-22T03:43:54;13.30;;;3.00;;
3571;SDS011;7958;53.024;12.970;2023-12-22T03:46:20;6.90;;;1.87;;
3571;SDS011;7958;53.024;12.970;2023-12-22T03:48:48;7.63;;;2.00;;
3571;SDS011;7958;53.024;12.970;2023-12-22T03:51:14;11.33;;;2.37;;
3571;SDS011;7958;53.024;12.970;2023-12-22T03:53:41;12.27;;;2.07;;
3571;SDS011;7958;53.024;12.970;2023-12-22T03:56:07;6.73;;;2.23;;
3571;SDS011;7958;53.024;12.970;2023-12-22T03:58:35;11.33;;;2.00;;
3571;SDS011;7958;53.024;12.970;2023-12-22T04:01:01;5.43;;;1.77;;
3571;SDS011;7958;53.024;12.970;2023-12-22T04:03:28;4.17;;;1.40;;
3571;SDS011;7958;53.024;12.970;2023-12-22T04:05:55;3.33;;;1.50;;
3571;SDS011;7958;53.024;12.970;2023-12-22T04:08:22;2.70;;;1.20;;
3571;SDS011;7958;53.024;12.970;2023-12-22T04:10:48;2.23;;;1.30;;
3571;SDS011;7958;53.024;12.970;2023-12-22T04:13:14;4.13;;;1.10;;
3571;SDS011;7958;53.024;12.970;2023-12-22T04:15:41;5.63;;;1.40;;
3571;SDS011;7958;53.024;12.970;2023-12-22T04:18:07;0.70;;;0.70;;
3571;SDS011;7958;53.024;12.970;2023-12-22T04:20:33;5.60;;;0.83;;
3571;SDS011;7958;53.024;12.970;2023-12-22T04:23:01;2.93;;;0.80;;
3571;SDS011;7958;53.024;12.970;2023-12-22T04:25:28;3.50;;;1.30;;
3571;SDS011;7958;53.024;12.970;2023-12-22T04:27:54;2.67;;;0.67;;
3571;SDS011;7958;53.024;12.970;2023-12-22T04:30:20;2.63;;;0.90;;
3571;SDS011;7958;53.024;12.970;2023-12-22T04:32:47;1.03;;;0.90;;
3571;SDS011;7958;53.024;12.970;2023-12-22T04:35:13;3.40;;;1.20;;
3571;SDS011;7958;53.024;12.970;2023-12-22T04:37:40;5.47;;;1.13;;
3571;SDS011;7958;53.024;12.970;2023-12-22T04:40:08;2.43;;;1.10;;
3571;SDS011;7958;53.024;12.970;2023-12-22T04:42:35;2.20;;;0.90;;
3571;SDS011;7958;53.024;12.970;2023-12-22T04:45:02;6.17;;;0.90;;
3571;SDS011;7958;53.024;12.970;2023-12-22T04:47:29;1.50;;;0.90;;
3571;SDS011;7958;53.024;12.970;2023-12-22T04:49:55;2.30;;;1.20;;
3571;SDS011;7958;53.024;12.970;2023-12-22T04:52:21;2.60;;;0.70;;
3571;SDS011;7958;53.024;12.970;2023-12-22T04:54:48;3.10;;;0.90;;
3571;SDS011;7958;53.024;12.970;2023-12-22T04:57:15;1.00;;;0.93;;
3571;SDS011;7958;53.024;12.970;2023-12-22T04:59:47;1.13;;;0.80;;
3571;SDS011;7958;53.024;12.970;2023-12-22T05:02:13;1.27;;;0.90;;
3571;SDS011;7958;53.024;12.970;2023-12-22T05:04:43;0.70;;;0.70;;
3571;SDS011;7958;53.024;12.970;2023-12-22T05:07:09;1.13;;;0.60;;
3571;SDS011;7958;53.024;12.970;2023-12-22T05:09:35;3.13;;;0.70;;
3571;SDS011;7958;53.024;12.970;2023-12-22T05:12:02;2.87;;;0.67;;
3571;SDS011;7958;53.024;12.970;2023-12-22T05:14:30;2.80;;;0.70;;
3571;SDS011;7958;53.024;12.970;2023-12-22T05:16:56;5.60;;;0.80;;
3571;SDS011;7958;53.024;12.970;2023-12-22T05:19:23;1.30;;;0.90;;
3571;SDS011;7958;53.024;12.970;2023-12-22T05:21:49;1.60;;;0.87;;
3571;SDS011;7958;53.024;12.970;2023-12-22T05:24:17;3.23;;;0.80;;
3571;SDS011;7958;53.024;12.970;2023-12-22T05:26:44;6.53;;;0.90;;
3571;SDS011;7958;53.024;12.970;2023-12-22T05:29:10;3.80;;;1.10;;
3571;SDS011;7958;53.024;12.970;2023-12-22T05:31:39;2.00;;;0.90;;
3571;SDS011;7958;53.024;12.970;2023-12-22T05:36:50;2.57;;;1.00;;
3571;SDS011;7958;53.024;12.970;2023-12-22T05:39:19;1.03;;;0.70;;
3571;SDS011;7958;53.024;12.970;2023-12-22T05:41:46;2.50;;;0.90;;
3571;SDS011;7958;53.024;12.970;2023-12-22T05:44:12;1.77;;;0.87;;
3571;SDS011;7958;53.024;12.970;2023-12-22T05:46:40;4.33;;;1.53;;
3571;SDS011;7958;53.024;12.970;2023-12-22T05:49:06;1.60;;;0.70;;
3571;SDS011;7958;53.024;12.970;2023-12-22T05:51:36;3.63;;;0.90;;
3571;SDS011;7958;53.024;12.970;2023-12-22T05:54:04;1.77;;;1.00;;
3571;SDS011;7958;53.024;12.970;2023-12-22T05:56:30;3.77;;;1.07;;
3571;SDS011;7958;53.024;12.970;2023-12-22T05:58:57;1.83;;;1.10;;
3571;SDS011;7958;53.024;12.970;2023-12-22T06:01:24;14.70;;;1.57;;
3571;SDS011;7958;53.024;12.970;2023-12-22T06:03:51;3.97;;;1.10;;
3571;SDS011;7958;53.024;12.970;2023-12-22T06:06:18;1.93;;;1.00;;
3571;SDS011;7958;53.024;12.970;2023-12-22T06:08:45;1.53;;;0.83;;
3571;SDS011;7958;53.024;12.970;2023-12-22T06:11:11;3.97;;;1.33;;
3571;SDS011;7958;53.024;12.970;2023-12-22T06:16:03;2.90;;;0.90;;
3571;SDS011;7958;53.024;12.970;2023-12-22T06:18:37;2.43;;;0.93;;
3571;SDS011;7958;53.024;12.970;2023-12-22T06:21:04;3.87;;;0.83;;
3571;SDS011;7958;53.024;12.970;2023-12-22T06:23:34;2.50;;;1.07;;
3571;SDS011;7958;53.024;12.970;2023-12-22T06:26:16;2.30;;;1.07;;
3571;SDS011;7958;53.024;12.970;2023-12-22T06:28:42;2.70;;;0.80;;
3571;SDS011;7958;53.024;12.970;2023-12-22T06:31:15;1.70;;;0.83;;
3571;SDS011;7958;53.024;12.970;2023-12-22T06:33:43;2.47;;;0.93;;
3571;SDS011;7958;53.024;12.970;2023-12-22T06:36:18;1.30;;;1.00;;
3571;SDS011;7958;53.024;12.970;2023-12-22T06:38:45;4.60;;;1.27;;
3571;SDS011;7958;53.024;12.970;2023-12-22T06:41:17;7.33;;;1.40;;
3571;SDS011;7958;53.024;12.970;2023-12-22T06:43:45;6.07;;;1.37;;
3571;SDS011;7958;53.024;12.970;2023-12-22T06:46:14;7.80;;;1.20;;
3571;SDS011;7958;53.024;12.970;2023-12-22T06:48:41;3.03;;;1.17;;
3571;SDS011;7958;53.024;12.970;2023-12-22T06:51:17;3.73;;;1.30;;
3571;SDS011;7958;53.024;12.970;2023-12-22T06:53:45;1.60;;;0.80;;
3571;SDS011;7958;53.024;12.970;2023-12-22T06:56:22;4.20;;;1.40;;
3571;SDS011;7958;53.024;12.970;2023-12-22T06:58:50;3.03;;;0.90;;
3571;SDS011;7958;53.024;12.970;2023-12-22T07:01:23;4.70;;;1.10;;
3571;SDS011;7958;53.024;12.970;2023-12-22T07:03:51;4.63;;;1.00;;
3571;SDS011;7958;53.024;12.970;2023-12-22T07:06:27;2.80;;;1.00;;
3571;SDS011;7958;53.024;12.970;2023-12-22T07:12:03;3.23;;;1.30;;
3571;SDS011;7958;53.024;12.970;2023-12-22T07:14:29;3.77;;;1.00;;
3571;SDS011;7958;53.024;12.970;2023-12-22T07:16:56;8.73;;;2.20;;
3571;SDS011;7958;53.024;12.970;2023-12-22T07:19:25;8.17;;;1.37;;
3571;SDS011;7958;53.024;12.970;2023-12-22T07:21:53;4.97;;;1.70;;
3571;SDS011;7958;53.024;12.970;2023-12-22T07:24:19;9.80;;;1.60;;
3571;SDS011;7958;53.024;12.970;2023-12-22T07:26:46;8.77;;;1.37;;
3571;SDS011;7958;53.024;12.970;2023-12-22T07:29:12;4.03;;;1.40;;
3571;SDS011;7958;53.024;12.970;2023-12-22T07:31:39;9.90;;;2.27;;
3571;SDS011;7958;53.024;12.970;2023-12-22T07:34:11;14.03;;;1.83;;
3571;SDS011;7958;53.024;12.970;2023-12-22T07:36:38;2.30;;;1.10;;
3571;SDS011;7958;53.024;12.970;2023-12-22T07:39:05;7.37;;;1.00;;
3571;SDS011;7958;53.024;12.970;2023-12-22T07:41:32;5.63;;;1.43;;
3571;SDS011;7958;53.024;12.970;2023-12-22T07:43:58;7.63;;;1.80;;
3571;SDS011;7958;53.024;12.970;2023-12-22T07:46:26;8.33;;;1.80;;
3571;SDS011;7958;53.024;12.970;2023-12-22T07:48:55;4.00;;;1.40;;
3571;SDS011;7958;53.024;12.970;2023-12-22T07:51:21;7.10;;;2.10;;
3571;SDS011;7958;53.024;12.970;2023-12-22T07:53:48;8.10;;;1.47;;
3571;SDS011;7958;53.024;12.970;2023-12-22T07:56:18;3.50;;;1.50;;
3571;SDS011;7958;53.024;12.970;2023-12-22T07:58:45;3.03;;;1.20;;
3571;SDS011;7958;53.024;12.970;2023-12-22T08:01:11;2.50;;;1.50;;
3571;SDS011;7958;53.024;12.970;2023-12-22T08:03:37;4.67;;;1.50;;
3571;SDS011;7958;53.024;12.970;2023-12-22T08:06:04;5.77;;;1.50;;
3571;SDS011;7958;53.024;12.970;2023-12-22T08:08:31;4.07;;;1.40;;
3571;SDS011;7958;53.024;12.970;2023-12-22T08:10:58;7.90;;;1.50;;
3571;SDS011;7958;53.024;12.970;2023-12-22T08:13:26;7.00;;;1.87;;
3571;SDS011;7958;53.024;12.970;2023-12-22T08:15:52;3.50;;;2.10;;
3571;SDS011;7958;53.024;12.970;2023-12-22T08:18:19;11.00;;;1.80;;
3571;SDS011;7958;53.024;12.970;2023-12-22T08:20:50;12.50;;;1.97;;
3571;SDS011;7958;53.024;12.970;2023-12-22T08:23:17;4.13;;;1.80;;
3571;SDS011;7958;53.024;12.970;2023-12-22T08:25:46;12.43;;;2.33;;
3571;SDS011;7958;53.024;12.970;2023-12-22T08:28:13;7.63;;;1.77;;
3571;SDS011;7958;53.024;12.970;2023-12-22T08:30:46;4.47;;;1.53;;
3571;SDS011;7958;53.024;12.970;2023-12-22T08:33:13;10.13;;;2.13;;
3571;SDS011;7958;53.024;12.970;2023-12-22T08:35:43;8.00;;;1.97;;
3571;SDS011;7958;53.024;12.970;2023-12-22T08:38:10;7.57;;;1.77;;
3571;SDS011;7958;53.024;12.970;2023-12-22T08:40:38;16.63;;;3.03;;
3571;SDS011;7958;53.024;12.970;2023-12-22T08:43:04;6.17;;;2.10;;
3571;SDS011;7958;53.024;12.970;2023-12-22T08:45:31;6.53;;;1.60;;
3571;SDS011;7958;53.024;12.970;2023-12-22T08:48:06;6.63;;;1.80;;
3571;SDS011;7958;53.024;12.970;2023-12-22T08:50:34;6.53;;;2.00;;
3571;SDS011;7958;53.024;12.970;2023-12-22T08:53:00;6.43;;;1.97;;
3571;SDS011;7958;53.024;12.970;2023-12-22T08:55:26;9.90;;;1.90;;
3571;SDS011;7958;53.024;12.970;2023-12-22T08:57:55;8.50;;;1.70;;
3571;SDS011;7958;53.024;12.970;2023-12-22T09:00:21;6.10;;;2.10;;
3571;SDS011;7958;53.024;12.970;2023-12-22T09:02:48;11.30;;;2.20;;
3571;SDS011;7958;53.024;12.970;2023-12-22T09:05:16;3.43;;;1.90;;
3571;SDS011;7958;53.024;12.970;2023-12-22T09:07:45;5.40;;;2.00;;
3571;SDS011;7958;53.024;12.970;2023-12-22T09:10:11;6.47;;;2.10;;
3571;SDS011;7958;53.024;12.970;2023-12-22T09:12:40;9.10;;;1.57;;
3571;SDS011;7958;53.024;12.970;2023-12-22T09:15:07;7.57;;;1.80;;
3571;SDS011;7958;53.024;12.970;2023-12-22T09:17:33;10.03;;;1.60;;
3571;SDS011;7958;53.024;12.970;2023-12-22T09:20:00;11.20;;;2.07;;
3571;SDS011;7958;53.024;12.970;2023-12-22T09:22:28;6.13;;;1.80;;
3571;SDS011;7958;53.024;12.970;2023-12-22T09:24:55;10.80;;;2.23;;
3571;SDS011;7958;53.024;12.970;2023-12-22T09:27:21;7.80;;;2.00;;
3571;SDS011;7958;53.024;12.970;2023-12-22T09:29:53;9.87;;;1.80;;
3571;SDS011;7958;53.024;12.970;2023-12-22T09:32:20;7.00;;;1.67;;
3571;SDS011;7958;53.024;12.970;2023-12-22T09:34:46;3.60;;;1.87;;
3571;SDS011;7958;53.024;12.970;2023-12-22T09:37:13;7.23;;;1.40;;
3571;SDS011;7958;53.024;12.970;2023-12-22T09:39:41;6.97;;;2.03;;
3571;SDS011;7958;53.024;12.970;2023-12-22T09:42:08;7.77;;;2.00;;
3571;SDS011;7958;53.024;12.970;2023-12-22T09:44:34;13.20;;;2.10;;
3571;SDS011;7958;53.024;12.970;2023-12-22T09:47:03;7.40;;;1.37;;
3571;SDS011;7958;53.024;12.970;2023-12-22T09:49:30;4.10;;;1.40;;
3571;SDS011;7958;53.024;12.970;2023-12-22T09:51:57;7.83;;;1.93;;
3571;SDS011;7958;53.024;12.970;2023-12-22T09:54:23;5.73;;;1.40;;
3571;SDS011;7958;53.024;12.970;2023-12-22T09:56:52;12.20;;;2.03;;
3571;SDS011;7958;53.024;12.970;2023-12-22T09:59:19;6.00;;;1.47;;
3571;SDS011;7958;53.024;12.970;2023-12-22T10:01:47;8.30;;;1.97;;
3571;SDS011;7958;53.024;12.970;2023-12-22T10:04:15;12.10;;;2.27;;
3571;SDS011;7958;53.024;12.970;2023-12-22T10:06:42;9.43;;;1.57;;
3571;SDS011;7958;53.024;12.970;2023-12-22T10:09:10;9.37;;;1.80;;
3571;SDS011;7958;53.024;12.970;2023-12-22T10:11:53;6.20;;;1.93;;
3571;SDS011;7958;53.024;12.970;2023-12-22T10:14:20;6.23;;;2.13;;
3571;SDS011;7958;53.024;12.970;2023-12-22T10:16:50;5.53;;;1.67;;
3571;SDS011;7958;53.024;12.970;2023-12-22T10:25:18;4.70;;;1.20;;
3571;SDS011;7958;53.024;12.970;2023-12-22T10:27:47;0.93;;;0.93;;
3571;SDS011;7958;53.024;12.970;2023-12-22T10:30:16;6.60;;;1.83;;
3571;SDS011;7958;53.024;12.970;2023-12-22T10:32:42;5.70;;;1.00;;
3571;SDS011;7958;53.024;12.970;2023-12-22T10:35:10;6.30;;;1.60;;
3571;SDS011;7958;53.024;12.970;2023-12-22T10:37:37;7.30;;;2.67;;
3571;SDS011;7958;53.024;12.970;2023-12-22T10:40:04;1.63;;;1.07;;
3571;SDS011;7958;53.024;12.970;2023-12-22T10:42:31;10.90;;;1.90;;
3571;SDS011;7958;53.024;12.970;2023-12-22T10:44:59;5.83;;;2.37;;
3571;SDS011;7958;53.024;12.970;2023-12-22T10:47:27;5.57;;;1.50;;
3571;SDS011;7958;53.024;12.970;2023-12-22T10:49:53;12.07;;;2.00;;
3571;SDS011;7958;53.024;12.970;2023-12-22T10:52:20;4.50;;;1.70;;
3571;SDS011;7958;53.024;12.970;2023-12-22T10:54:47;6.23;;;1.70;;
3571;SDS011;7958;53.024;12.970;2023-12-22T10:57:16;6.43;;;1.37;;
3571;SDS011;7958;53.024;12.970;2023-12-22T10:59:44;7.17;;;1.70;;
3571;SDS011;7958;53.024;12.970;2023-12-22T11:02:14;4.03;;;1.57;;
3571;SDS011;7958;53.024;12.970;2023-12-22T11:04:42;7.47;;;2.00;;
3571;SDS011;7958;53.024;12.970;2023-12-22T11:07:13;4.10;;;1.70;;
3571;SDS011;7958;53.024;12.970;2023-12-22T11:09:40;6.10;;;1.43;;
3571;SDS011;7958;53.024;12.970;2023-12-22T11:12:10;7.87;;;2.10;;
3571;SDS011;7958;53.024;12.970;2023-12-22T11:14:37;6.97;;;1.63;;
3571;SDS011;7958;53.024;12.970;2023-12-22T11:17:03;4.07;;;1.73;;
3571;SDS011;7958;53.024;12.970;2023-12-22T11:19:32;6.17;;;1.80;;
3571;SDS011;7958;53.024;12.970;2023-12-22T11:21:59;5.90;;;1.93;;
3571;SDS011;7958;53.024;12.970;2023-12-22T11:24:28;8.73;;;2.00;;
3571;SDS011;7958;53.024;12.970;2023-12-22T11:26:56;7.90;;;1.70;;
3571;SDS011;7958;53.024;12.970;2023-12-22T11:29:24;4.03;;;1.50;;
3571;SDS011;7958;53.024;12.970;2023-12-22T11:31:54;4.93;;;1.60;;
3571;SDS011;7958;53.024;12.970;2023-12-22T11:34:21;4.73;;;1.70;;
3571;SDS011;7958;53.024;12.970;2023-12-22T11:36:50;7.00;;;1.90;;
3571;SDS011;7958;53.024;12.970;2023-12-22T11:39:18;6.90;;;2.03;;
3571;SDS011;7958;53.024;12.970;2023-12-22T11:41:44;8.27;;;2.10;;
3571;SDS011;7958;53.024;12.970;2023-12-22T11:44:10;7.13;;;2.20;;
3571;SDS011;7958;53.024;12.970;2023-12-22T11:46:37;3.90;;;1.73;;
3571;SDS011;7958;53.024;12.970;2023-12-22T11:49:04;6.27;;;1.27;;
3571;SDS011;7958;53.024;12.970;2023-12-22T11:51:33;8.67;;;2.07;;
3571;SDS011;7958;53.024;12.970;2023-12-22T11:54:01;8.13;;;1.90;;
3571;SDS011;7958;53.024;12.970;2023-12-22T11:56:28;5.07;;;1.20;;
3571;SDS011;7958;53.024;12.970;2023-12-22T11:58:56;5.93;;;2.17;;
3571;SDS011;7958;53.024;12.970;2023-12-22T12:01:24;6.27;;;1.47;;
3571;SDS011;7958;53.024;12.970;2023-12-22T12:03:52;4.00;;;1.80;;
3571;SDS011;7958;53.024;12.970;2023-12-22T12:06:25;5.00;;;1.50;;
3571;SDS011;7958;53.024;12.970;2023-12-22T12:08:57;9.90;;;1.93;;
3571;SDS011;7958;53.024;12.970;2023-12-22T12:12:08;8.47;;;2.30;;
3571;SDS011;7958;53.024;12.970;2023-12-22T12:14:31;6.20;;;1.77;;
3571;SDS011;7958;53.024;12.970;2023-12-22T12:17:00;5.37;;;1.90;;
3571;SDS011;7958;53.024;12.970;2023-12-22T12:19:30;9.30;;;2.83;;
3571;SDS011;7958;53.024;12.970;2023-12-22T12:21:56;9.77;;;2.23;;
3571;SDS011;7958;53.024;12.970;2023-12-22T12:24:23;1.67;;;1.30;;
3571;SDS011;7958;53.024;12.970;2023-12-22T12:26:51;5.17;;;2.03;;
3571;SDS011;7958;53.024;12.970;2023-12-22T12:29:17;7.50;;;1.57;;
3571;SDS011;7958;53.024;12.970;2023-12-22T12:31:44;4.87;;;1.23;;
3571;SDS011;7958;53.024;12.970;2023-12-22T12:34:10;6.33;;;1.43;;
3571;SDS011;7958;53.024;12.970;2023-12-22T12:36:37;4.37;;;1.40;;
3571;SDS011;7958;53.024;12.970;2023-12-22T12:39:06;6.03;;;1.23;;
3571;SDS011;7958;53.024;12.970;2023-12-22T12:41:35;5.83;;;1.60;;
3571;SDS011;7958;53.024;12.970;2023-12-22T12:44:04;5.27;;;2.03;;
3571;SDS011;7958;53.024;12.970;2023-12-22T12:46:34;11.60;;;2.13;;
3571;SDS011;7958;53.024;12.970;2023-12-22T12:49:03;9.83;;;1.60;;
3571;SDS011;7958;53.024;12.970;2023-12-22T12:51:31;8.03;;;2.20;;
3571;SDS011;7958;53.024;12.970;2023-12-22T12:54:02;6.17;;;1.83;;
3571;SDS011;7958;53.024;12.970;2023-12-22T12:56:29;7.80;;;2.07;;
3571;SDS011;7958;53.024;12.970;2023-12-22T12:58:55;5.03;;;1.77;;
3571;SDS011;7958;53.024;12.970;2023-12-22T13:01:23;4.57;;;1.70;;
3571;SDS011;7958;53.024;12.970;2023-12-22T13:03:52;6.53;;;2.23;;
3571;SDS011;7958;53.024;12.970;2023-12-22T13:06:19;9.67;;;1.80;;
3571;SDS011;7958;53.024;12.970;2023-12-22T13:08:47;6.97;;;1.33;;
3571;SDS011;7958;53.024;12.970;2023-12-22T13:11:14;5.57;;;1.43;;
3571;SDS011;7958;53.024;12.970;2023-12-22T13:13:40;8.40;;;1.40;;
3571;SDS011;7958;53.024;12.970;2023-12-22T13:16:07;3.73;;;1.20;;
3571;SDS011;7958;53.024;12.970;2023-12-22T13:18:35;8.13;;;1.70;;
3571;SDS011;7958;53.024;12.970;2023-12-22T13:21:02;6.93;;;1.87;;
3571;SDS011;7958;53.024;12.970;2023-12-22T13:23:29;5.97;;;1.30;;
3571;SDS011;7958;53.024;12.970;2023-12-22T13:25:55;2.70;;;1.57;;
3571;SDS011;7958;53.024;12.970;2023-12-22T13:28:26;4.53;;;1.47;;
3571;SDS011;7958;53.024;12.970;2023-12-22T13:30:52;8.67;;;2.07;;
3571;SDS011;7958;53.024;12.970;2023-12-22T13:33:19;3.43;;;1.43;;
3571;SDS011;7958;53.024;12.970;2023-12-22T13:35:47;4.70;;;1.70;;
3571;SDS011;7958;53.024;12.970;2023-12-22T13:38:13;7.80;;;1.67;;
3571;SDS011;7958;53.024;12.970;2023-12-22T13:40:44;5.23;;;1.40;;
3571;SDS011;7958;53.024;12.970;2023-12-22T13:43:10;9.47;;;1.73;;
3571;SDS011;7958;53.024;12.970;2023-12-22T13:45:37;8.50;;;1.70;;
3571;SDS011;7958;53.024;12.970;2023-12-22T13:48:03;3.03;;;1.63;;
3571;SDS011;7958;53.024;12.970;2023-12-22T13:50:30;3.93;;;1.30;;
3571;SDS011;7958;53.024;12.970;2023-12-22T13:53:08;9.50;;;1.60;;
3571;SDS011;7958;53.024;12.970;2023-12-22T13:55:34;6.33;;;1.50;;
3571;SDS011;7958;53.024;12.970;2023-12-22T13:58:02;5.43;;;1.90;;
3571;SDS011;7958;53.024;12.970;2023-12-22T14:00:29;10.10;;;1.40;;
3571;SDS011;7958;53.024;12.970;2023-12-22T14:02:57;3.50;;;1.60;;
3571;SDS011;7958;53.024;12.970;2023-12-22T14:05:24;3.67;;;1.67;;
3571;SDS011;7958;53.024;12.970;2023-12-22T14:07:50;4.63;;;1.30;;
3571;SDS011;7958;53.024;12.970;2023-12-22T14:10:18;7.77;;;2.23;;
3571;SDS011;7958;53.024;12.970;2023-12-22T14:12:44;4.87;;;1.57;;
3571;SDS011;7958;53.024;12.970;2023-12-22T14:15:11;6.80;;;2.00;;
3571;SDS011;7958;53.024;12.970;2023-12-22T14:17:38;3.23;;;1.17;;
3571;SDS011;7958;53.024;12.970;2023-12-22T14:20:07;4.23;;;1.50;;
3571;SDS011;7958;53.024;12.970;2023-12-22T14:22:34;3.77;;;1.57;;
3571;SDS011;7958;53.024;12.970;2023-12-22T14:25:01;5.60;;;1.57;;
3571;SDS011;7958;53.024;12.970;2023-12-22T14:27:29;3.07;;;0.90;;
3571;SDS011;7958;53.024;12.970;2023-12-22T14:29:56;2.10;;;1.37;;
3571;SDS011;7958;53.024;12.970;2023-12-22T14:32:22;4.47;;;1.53;;
3571;SDS011;7958;53.024;12.970;2023-12-22T14:34:48;7.30;;;1.37;;
3571;SDS011;7958;53.024;12.970;2023-12-22T14:37:15;3.07;;;1.10;;
3571;SDS011;7958;53.024;12.970;2023-12-22T14:39:42;1.57;;;0.90;;
3571;SDS011;7958;53.024;12.970;2023-12-22T14:42:08;9.17;;;1.33;;
3571;SDS011;7958;53.024;12.970;2023-12-22T14:44:36;4.17;;;1.10;;
3571;SDS011;7958;53.024;12.970;2023-12-22T14:47:03;3.20;;;0.97;;
3571;SDS011;7958;53.024;12.970;2023-12-22T14:49:30;5.30;;;1.67;;
3571;SDS011;7958;53.024;12.970;2023-12-22T14:51:56;5.53;;;1.07;;
3571;SDS011;7958;53.024;12.970;2023-12-22T14:54:24;5.40;;;1.80;;
3571;SDS011;7958;53.024;12.970;2023-12-22T14:56:51;2.37;;;1.10;;
3571;SDS011;7958;53.024;12.970;2023-12-22T14:59:17;7.63;;;1.17;;
3571;SDS011;7958;53.024;12.970;2023-12-22T15:01:45;5.07;;;1.37;;
3571;SDS011;7958;53.024;12.970;2023-12-22T15:04:11;6.03;;;1.30;;
3571;SDS011;7958;53.024;12.970;2023-12-22T15:06:38;5.20;;;1.40;;
3571;SDS011;7958;53.024;12.970;2023-12-22T15:09:05;4.03;;;1.13;;
3571;SDS011;7958;53.024;12.970;2023-12-22T15:11:31;2.03;;;1.30;;
3571;SDS011;7958;53.024;12.970;2023-12-22T15:13:58;10.27;;;1.77;;
3571;SDS011;7958;53.024;12.970;2023-12-22T15:16:25;5.03;;;1.40;;